Shelby Township, MI (48315)

9:03 PM EDT on August 30, 2015 (GMT -0400)
Ebeling subdivision | | Change Station
CLOSE
Current Station
Personal Weather Station
Location: Macomb, MI
Elevation: 610 ft
Nearby Weather Stations

Elev 610 ft 42.65 °N, 82.97 °W | Updated 41 seconds ago

Mostly Cloudy
Mostly Cloudy
77.1 °F
Feels Like 79 °F
N
0.0
Wind Variable Wind from East
Gusts 0.0 mph

Today
High -- | Low -- °F
--% Chance of Precip.
Yesterday
High -- | Low -- °F
Precip. -- in
6:54 AM 8:10 PM
Full, 98% visible
Pressure 30.01 in
Visibility 10.0 miles
Clouds Few 3900 ft
Mostly Cloudy 4700 ft
Heat Index 79 °F
Dew Point 73 °F
Humidity 87%
Rainfall 0.00 in
Snow Depth Not available.
UV 0 out of 12
Pollen 9.60 out of 12
Air Quality Not available.
Flu Activity Not available.
METAR KMTC 310058Z AUTO 19002KT 10SM FEW039 BKN047 23/20 A3001 RMK AO2 CIG 036 RWY01 SLP163 T02340202
Pressure 30.01 in
Visibility 10.0 miles
Clouds Few 3900 ft
Mostly Cloudy 4700 ft
Heat Index 79 °F
Dew Point 73 °F
Humidity 87%
Rainfall 0.00 in
Snow Depth Not available.
UV 0 out of 12
Pollen 9.60 out of 12
Air Quality Not available.
Flu Activity Not available.
METAR KMTC 310058Z AUTO 19002KT 10SM FEW039 BKN047 23/20 A3001 RMK AO2 CIG 036 RWY01 SLP163 T02340202

10-Day Weather Forecast

×

Almanac

Astronomy

Aug. 30, 2015 Rise Set
Actual Time
Civil Twilight
Nautical Twilight
Astronomical Twilight
Moon
Length of Visible Light
Length of Day
Tomorrow will be .
, % of the Moon is Illuminated

Today's Extremes

State Highs State Lows

Community

WunderPhotos

Upload Photos

1,851,126 photos uploaded!

WunderBlogs® & News

Nearby

Air Quality

  Air Quality AQ Index Pollutant
Not available.

Snow Depth

Station Depth Elevation

Earthquake Activity

City Distance Mag. Time & Date
Minimum magnitude displayed is 2.5.

Coastal Water Temperatures

Place Temperature

Stations

Nearby Weather Stations

Station Location Temp. Windchill Dew Point Humidity Wind Precip. Elev Updated Type